Currently 51°F in San Jacinto, California, USA
51°F
51°F / 51°F
5 mph SW
0.00"
Monday, February 19, 2018 12:09 AM PST

San Jacinto, California Weather Summary
Last 36 Hours

Temperature Winds Hourly Humidity Dewpoint
Time Report Norm Report Norm Max Gusts Precip. Rpt. Norm Rpt. Norm Pressure
1Mon 12:09 AM  51.2°F  48°F  5 mph SW  calm  9 mph  0.00"  81%  76%  45°F  40°F  29.95"
2Mon 12:00 AM  51.2°F  48°F  4 mph SW  1 mph  13 mph  0.00"  81%  76%  45°F  40°F  29.95"
Sun 11:00 PM  51.6°F  49°F  3 mph S  1 mph  9 mph  0.00"  74%  74%  43°F  41°F  29.97"
Sun 10:00 PM  51.2°F  50°F  2 mph SW  1 mph  11 mph  0.00"  75%  70%  43°F  41°F  29.98"
Sun 09:00 PM  51.2°F  52°F  2 mph S  1 mph  15 mph  0.00"  78%  67%  44°F  41°F  29.98"
Sun 08:00 PM  52.5°F  54°F  4 mph S  1 mph  11 mph  0.00"  78%  65%  46°F  41°F  29.98"
Sun 07:00 PM  55.0°F  56°F  calm  1 mph  13 mph  0.00"  58%  61%  40°F  42°F  29.97"
Sun 06:00 PM  56.9°F  58°F  5 mph S  2 mph  20 mph  0.00"  47%  56%  36°F  42°F  29.97"
Sun 05:00 PM  60.6°F  61°F  8 mph SW  2 mph  24 mph  0.00"  39%  49%  35°F  41°F  29.96"
Sun 04:00 PM  63.1°F  63°F  13 mph SW  3 mph  20 mph  0.00"  39%  44%  37°F  40°F  29.95"
Sun 03:00 PM  64.9°F  64°F  9 mph S  3 mph  23 mph  0.00"  39%  42%  38°F  39°F  29.96"
Sun 02:00 PM  66.0°F  63°F  12 mph SW  3 mph  20 mph  0.00"  38%  43%  39°F  40°F  29.98"
Sun 01:00 PM  65.6°F  63°F  2 mph SE  3 mph  14 mph  0.00"  36%  45%  37°F  40°F  30.00"
Sun 12:00 PM  64.7°F  61°F  7 mph W  2 mph  17 mph  0.00"  37%  48%  37°F  41°F  30.04"
Sun 11:00 AM  62.2°F  59°F  2 mph NW  1 mph  11 mph  0.00"  38%  52%  35°F  41°F  30.07"
Sun 10:00 AM  61.9°F  56°F  2 mph NW  1 mph  3 mph  0.00"  37%  59%  34°F  41°F  30.08"
Sun 09:00 AM  56.5°F  51°F  calm  1 mph  3 mph  0.00"  45%  67%  35°F  40°F  30.10"
Sun 08:00 AM  47.6°F  47°F  2 mph E  1 mph  3 mph  0.00"  54%  76%  31°F  39°F  30.11"
Sun 07:00 AM  41.7°F  43°F  2 mph NE  calm  3 mph  0.00"  62%  82%  29°F  38°F  30.09"
Sun 06:00 AM  43.4°F  43°F  calm  calm  3 mph  0.00"  57%  82%  29°F  38°F  30.09"
Sun 05:00 AM  43.0°F  44°F  calm  calm  none  0.00"  54%  81%  27°F  38°F  30.09"
Sun 04:00 AM  44.5°F  45°F  calm  calm  none  0.00"  51%  80%  27°F  39°F  30.10"
Sun 03:00 AM  46.5°F  45°F  calm  1 mph  3 mph  0.00"  47%  79%  26°F  39°F  30.11"
Sun 02:00 AM  46.7°F  46°F  calm  1 mph  3 mph  0.00"  48%  78%  27°F  39°F  30.12"
Sun 01:00 AM  48.2°F  47°F  1 mph N  calm  3 mph  0.00"  47%  77%  28°F  40°F  30.13"
Sun 12:00 AM  49.2°F  48°F  1 mph N  1 mph  3 mph  0.00"  45%  76%  28°F  40°F  30.13"
Sat 11:00 PM  53.7°F  49°F  3 mph N  1 mph  7 mph  0.00"  36%  73%  26°F  41°F  30.14"
Sat 10:00 PM  56.0°F  51°F  1 mph SE  1 mph  6 mph  0.00"  31%  70%  24°F  41°F  30.14"
Sat 09:00 PM  57.5°F  52°F  2 mph SE  1 mph  5 mph  0.00"  29%  67%  24°F  41°F  30.14"
Sat 08:00 PM  61.1°F  54°F  calm  1 mph  7 mph  0.00"  31%  64%  29°F  41°F  30.13"
Sat 07:00 PM  64.1°F  56°F  2 mph NW  1 mph  9 mph  0.00"  25%  60%  26°F  42°F  30.13"
Sat 06:00 PM  66.8°F  58°F  6 mph SW  2 mph  10 mph  0.00"  22%  56%  25°F  42°F  30.12"
Sat 05:00 PM  71.4°F  61°F  1 mph NW  3 mph  8 mph  0.00"  14%  49%  18°F  41°F  30.11"
Sat 04:00 PM  73.7°F  63°F  4 mph NW  3 mph  10 mph  0.00"  13%  44%  18°F  40°F  30.12"
Sat 03:00 PM  73.1°F  64°F  1 mph NW  3 mph  10 mph  0.00"  13%  42%  17°F  40°F  30.13"
Sat 02:00 PM  72.6°F  64°F  5 mph NW  3 mph  11 mph  0.00"  12%  43%  15°F  41°F  30.16"
Sat 01:00 PM  72.1°F  63°F  5 mph NW  3 mph  10 mph  0.00"  12%  46%  14°F  41°F  30.19"
Sat 12:00 PM  70.4°F  62°F  2 mph S  3 mph  10 mph  0.00"  14%  48%  17°F  41°F  30.22"

  1. Current weather data. No green row appears if the current weather data is also the high or low for the current day.
  2. High temperature for the current day.
  3. Low temperature for the current day.

The San Jacinto, California weather pages are a service of WeatherCurrents. San Jacinto is located in the heart of the San Jacinto Valley, near Hemet, the Soboba Casino, and at the foot of the San Jacinto Mountains.
Copyright ©Mon Feb 19 00:10:22 PST 2018  WeatherCurrents. All rights reserved. - Submit questions and comments - Privacy Policy

This page automatically refreshes every 10 minutes.